• Join FlightAware (Why Join?)
  • Login
  • US Flag 
10:50AM EDT


 

Airport Tracker/Info


-or-


 

Live Flight TrackerFlight Track Log ✈ EJA312 ✈ 24-Oct-2013 ✈ KBDL - KOQU

Flight Track Log - Related Links

Times and Time Zones

All times are in EDT time to prevent confusion due to time zone crossing. See the EJA312 flight status page for this flight to view local times or setup timezone preferences in your user account.

Time Position Orientation Groundspeed Altitude Reporting Facility
EDT Latitude Longitude Course Direction KTS MPH feet Rate Location/Type
09:56AM 41.7371 -71.9247 109° East  Level Estimated
09:57AM 41.7030 -71.7987 110° East  Level Estimated
09:58AM 41.6687 -71.6728 110° East  Level Estimated
09:58AM 42.5655 -72.4223 110° East 399 459 17,100  Level FlightAware ADS-B (KSNC)
09:58AM 42.6149 -72.3941 23° Northeast 399 459 17,100  Level FlightAware ADS-B (KSNC)
09:59AM 42.6849 -72.3541 23° Northeast 399 459 17,100 780 Level FlightAware ADS-B (EDDS / STR)
10:00AM 42.7548 -72.3142 23° Northeast 406 467 18,200 1,740 Climbing FlightAware ADS-B (KSNC)
10:00AM 42.7886 -72.2903 27° Northeast 412 474 18,900 2,160 Climbing FlightAware ADS-B (KSNC)
10:00AM 42.8029 -72.2748 38° Northeast 415 478 19,300 2,100 Climbing FlightAware ADS-B (EDDS / STR)
10:00AM 42.8169 -72.2551 46° Northeast 422 486 19,600 1,860 Climbing FlightAware ADS-B (KSNC)
10:01AM 42.8632 -72.1753 52° Northeast 431 496 20,800 1,920 Climbing FlightAware ADS-B (KSNC)
10:01AM 42.8997 -72.1150 50° Northeast 431 496 21,800 1,680 Climbing FlightAware ADS-B (EDDS / STR)
10:02AM 42.9571 -72.0195 51° Northeast 444 511 22,900 960 Climbing FlightAware ADS-B (KSNC)
10:03AM 42.9965 -71.9536 51° Northeast 454 522 23,000 900 Climbing FlightAware ADS-B (KSNC)
10:03AM 43.0485 -71.8661 51° Northeast 459 528 24,000 1,620 Climbing FlightAware ADS-B (EDDS / STR)
10:04AM 43.0485 -71.8661 51° Northeast 458 527 25,100 1,800 Climbing FlightAware ADS-B (KBOS)
10:05AM 43.1531 -71.6888 51° Northeast 460 529 26,300 1,800 Climbing FlightAware ADS-B (KBOS)
10:05AM 43.1951 -71.6174 51° Northeast 463 533 27,300 1,740 Climbing FlightAware ADS-B (KBOS)
10:05AM 43.1985 -71.6114 52° Northeast 466 536 27,300 1,680 Level FlightAware ADS-B
10:06AM 43.2259 -71.5440 61° Northeast 464 534 28,400 1,500 Climbing FlightAware ADS-B (EDDS / STR)
10:06AM 43.2401 -71.4817 73° East 469 540 28,700 900 Climbing FlightAware ADS-B
10:06AM 43.2472 -71.4473 74° East 476 548 29,000 300 Climbing FlightAware ADS-B
10:07AM 43.2786 -71.3040 73° East 507 583 29,000  Level FlightAware ADS-B (KBOS)
10:07AM 43.2994 -71.2081 73° East 513 590 29,000  Level FlightAware ADS-B (KBOS)
10:08AM 43.3229 -71.0991 73° East 520 598 29,000  Level FlightAware ADS-B (EDDS / STR)
10:09AM 43.3494 -70.9752 74° East 523 602 29,000  Level FlightAware ADS-B (KBOS)
10:09AM 43.3738 -70.8600 74° East 526 605 29,000  Level FlightAware ADS-B (KBOS)
10:10AM 43.3924 -70.7721 74° East 527 606 29,000  Level FlightAware ADS-B (KBOS)
10:10AM 43.4232 -70.6308 73° East 530 610 29,000  Level FlightAware ADS-B (KBOS)
10:12AM 43.4750 -70.5062 60° Northeast 533 613 29,000  Level FlightAware ADS-B (KBOS)
10:12AM 43.5583 -70.3200 58° Northeast 534 615 29,000  Level FlightAware ADS-B (KBOS)
10:13AM 43.5748 -70.2829 58° Northeast 533 613 29,000  Level FlightAware ADS-B (CYQI)
10:14AM 43.6714 -70.0665 58° Northeast 532 612 29,000  Level FlightAware ADS-B (KBOS)
10:15AM 43.7737 -69.8357 58° Northeast 533 613 29,000  Level FlightAware ADS-B (CYQI)
10:16AM 43.8549 -69.6510 59° Northeast 532 612 29,000  Level FlightAware ADS-B (CYQI)
10:17AM 43.8236 -69.7224 239° Southwest 532 612 29,000  Level FlightAware ADS-B (CYQI)
10:18AM 44.0106 -69.2938 59° Northeast 532 612 29,000  Level FlightAware ADS-B (CYQI)
10:19AM 44.0368 -69.2334 59° Northeast 534 615 29,000  Level FlightAware ADS-B (CYQI)
10:19AM 44.0885 -69.1134 59° Northeast 532 612 29,000  Level FlightAware ADS-B (CYQI)
10:20AM 44.1379 -68.9983 59° Northeast 533 613 29,000  Level FlightAware ADS-B (CYQI)
10:20AM 44.1786 -68.9034 59° Northeast 534 615 29,000  Level FlightAware ADS-B (CYQI)
10:21AM 44.2422 -68.7541 59° Northeast 534 615 29,000  Level FlightAware ADS-B (CYQI)
10:22AM 44.2800 -68.6650 59° Northeast 534 615 29,000  Level FlightAware ADS-B (CYQI)
10:22AM 44.3175 -68.5764 59° Northeast 536 617 29,000  Level FlightAware ADS-B (CYQI)
10:23AM 44.3563 -68.4843 59° Northeast 536 617 29,000  Level FlightAware ADS-B (CYQI)
10:23AM 44.3953 -68.3914 60° Northeast 537 618 29,000  Level FlightAware ADS-B (KBGR)
10:24AM 44.4354 -68.2956 60° Northeast 536 617 29,000  Level FlightAware ADS-B (CYQI)
10:24AM 44.4567 -68.2447 60° Northeast 537 618 29,000  Level FlightAware ADS-B (CYQI)
10:25AM 44.5056 -68.1274 60° Northeast 539 620 29,000  Level FlightAware ADS-B (CYQI)
10:25AM 44.5490 -68.0228 60° Northeast 538 619 29,000  Level FlightAware ADS-B (CYQI)
10:26AM 44.5892 -67.9257 60° Northeast 539 620 29,000  Level FlightAware ADS-B (CYQI)
10:26AM 44.6283 -67.8309 60° Northeast 539 620 29,000  Level FlightAware ADS-B (CYQI)
10:27AM 44.6663 -67.7384 60° Northeast 535 616 29,000  Level FlightAware ADS-B (CYSG)
10:27AM 44.7059 -67.6415 60° Northeast 536 617 29,000  Level FlightAware ADS-B (KBGR)
10:28AM 44.7513 -67.5304 60° Northeast 535 616 29,000  Level FlightAware ADS-B (CYQI)
10:28AM 44.7886 -67.4385 60° Northeast 536 617 29,000  Level FlightAware ADS-B (CYQI)
10:29AM 44.8160 -67.3708 60° Northeast 535 616 29,000  Level FlightAware ADS-B (CYQI)
10:29AM 44.8545 -67.2756 60° Northeast 537 618 29,000  Level FlightAware ADS-B (KBGR)
10:30AM 44.8933 -67.1789 60° Northeast 535 616 29,000  Level FlightAware ADS-B (CYQI)
10:31AM 44.8933 -67.1789 60° Northeast 536 617 29,000  Level FlightAware ADS-B (CYQI)
10:33AM 45.0830 -66.7034 60° Northeast 537 618 29,000  Level FlightAware ADS-B (CYQI)
10:33AM 45.1278 -66.5899 61° Northeast 538 619 29,000  Level FlightAware ADS-B (CYQI)
10:34AM 45.1677 -66.4883 61° Northeast 538 619 29,000  Level FlightAware ADS-B (CYQI)
10:34AM 45.2064 -66.3894 61° Northeast 538 619 29,000  Level FlightAware ADS-B (CYQI)
10:35AM 45.2553 -66.2640 61° Northeast 538 619 29,000  Level FlightAware ADS-B (CYQI)
10:36AM 45.3045 -66.1374 61° Northeast 538 619 29,000 -300 Level FlightAware ADS-B (CYQI)
10:36AM 45.3400 -66.0454 61° Northeast 532 612 28,700 -2,280 Descending FlightAware ADS-B (CYQI)
10:37AM 45.3698 -65.9682 61° Northeast 495 570 26,600 -3,900 Descending FlightAware ADS-B (CYQI)
10:37AM 45.4259 -65.8388 58° Northeast 475 547 24,000 -4,020 Descending FlightAware ADS-B (CYQI)
10:38AM 45.4976 -65.7222 49° Northeast 472 543 20,400 -4,140 Descending FlightAware ADS-B (CYQI)
10:39AM 45.5667 -65.5667 49° Northeast 430 495 15,500 -4,020 Descending Moncton Center
10:40AM 45.6333 -65.4500 51° Northeast 400 460 11,800 -3,240 Descending Moncton Center
10:41AM 45.7000 -65.3333 51° Northeast 340 391 9,100 -2,460 Descending Moncton Center
10:42AM 45.7500 -65.2667 43° Northeast 300 345 6,900 -1,740 Descending Moncton Center
10:43AM 45.8000 -65.1667 54° Northeast 280 322 5,700 -1,440 Descending Moncton Center
10:44AM 45.8333 -65.0667 64° Northeast 260 299 4,100 -900 Descending Moncton Center
10:45AM 45.8667 -65.0000 54° Northeast 240 276 3,900 -60 Descending Moncton Center
10:46AM 45.9000 -64.9333 54° Northeast 220 253 4,000  Climbing Moncton Center
10:47AM 45.9500 -64.8333 54° Northeast 240 276 3,900 -600 Descending Moncton Center
10:48AM 45.9833 -64.7500 60° Northeast 250 288 2,900 -480 Descending Moncton Center
10:49AM 46.0167 -64.6667 60° Northeast 220 253 3,000 -360 Climbing Moncton Center
10:51AM 46.1000 -64.6667 60° Northeast  Level FlightAware Approximate
10:51AM 46.0500 -64.5500 60° Northeast 200 230 1,900  Level Moncton Center
10:52AM 46.0833 -64.5500 360° North 140 161 1,900 -360 Level Moncton Center
10:53AM 46.1000 -64.5667 325° Northwest 120 138 1,200 -600 Descending Moncton Center
10:54AM 46.1000 -64.6167 270° West 100 115 700 -540 Descending Moncton Center
10:55AM 46.1000 -64.6667 270° West 100 115 200 -300 Descending Moncton Center
10:56AM 46.1000 -64.6833 270° West 100 115 200  Level Moncton Center
10:58AM 46.1000 -64.6667 60° Northeast  Level FlightAware Approximate
11:05AM 45.5911 -65.5156 60° Northeast  Level Estimated
11:06AM 45.5179 -65.6356 60° Northeast  Level Estimated
11:07AM 45.4446 -65.7553 60° Northeast  Level Estimated
11:08AM 45.3711 -65.8747 60° Northeast  Level Estimated
11:09AM 45.2976 -65.9938 60° Northeast  Level Estimated
11:10AM 45.2239 -66.1125 60° Northeast  Level Estimated
11:11AM 45.1500 -66.2310 60° Northeast  Level Estimated
11:12AM 45.0761 -66.3491 60° Northeast  Level Estimated
11:13AM 45.0020 -66.4670 60° Northeast  Level Estimated
11:14AM 44.9278 -66.5845 60° Northeast  Level Estimated
11:15AM 44.8535 -66.7018 60° Northeast  Level Estimated
11:16AM 44.7791 -66.8187 60° Northeast  Level Estimated
11:17AM 44.7045 -66.9353 60° Northeast  Level Estimated
11:18AM 44.6298 -67.0517 60° Northeast  Level Estimated
11:19AM 44.5551 -67.1677 60° Northeast  Level Estimated
11:20AM 44.4802 -67.2835 60° Northeast  Level Estimated
11:21AM 44.4051 -67.3989 60° Northeast  Level Estimated
11:22AM 44.3300 -67.5141 60° Northeast  Level Estimated
11:23AM 44.2548 -67.6289 60° Northeast  Level Estimated
11:24AM 44.1794 -67.7435 60° Northeast  Level Estimated
11:25AM 44.1039 -67.8577 60° Northeast  Level Estimated
11:26AM 44.0283 -67.9717 60° Northeast  Level Estimated
11:27AM 43.9526 -68.0854 60° Northeast  Level Estimated
11:28AM 43.8768 -68.1988 60° Northeast  Level Estimated
11:29AM 43.8009 -68.3119 60° Northeast  Level Estimated
11:30AM 43.7248 -68.4247 60° Northeast  Level Estimated
11:31AM 43.6487 -68.5372 60° Northeast  Level Estimated
11:32AM 43.5724 -68.6495 60° Northeast  Level Estimated
11:33AM 43.4960 -68.7614 60° Northeast  Level Estimated
11:34AM 43.4196 -68.8731 60° Northeast  Level Estimated
11:35AM 43.3430 -68.9845 60° Northeast  Level Estimated
11:36AM 43.2663 -69.0956 60° Northeast  Level Estimated
11:37AM 43.1895 -69.2065 60° Northeast  Level Estimated
11:38AM 43.1126 -69.3170 60° Northeast  Level Estimated
11:39AM 43.0355 -69.4273 60° Northeast  Level Estimated
11:40AM 42.9584 -69.5373 60° Northeast  Level Estimated
11:41AM 42.8812 -69.6470 60° Northeast  Level Estimated
11:42AM 42.8039 -69.7565 60° Northeast  Level Estimated
11:43AM 42.7264 -69.8657 60° Northeast  Level Estimated
11:44AM 42.6489 -69.9746 60° Northeast  Level Estimated
11:45AM 42.5712 -70.0832 60° Northeast  Level Estimated
11:46AM 42.4935 -70.1916 60° Northeast  Level Estimated
11:47AM 42.4156 -70.2997 60° Northeast  Level Estimated
11:48AM 42.3377 -70.4075 60° Northeast  Level Estimated
11:49AM 42.2596 -70.5151 60° Northeast  Level Estimated
11:50AM 42.1815 -70.6224 60° Northeast  Level Estimated
11:51AM 42.1032 -70.7294 60° Northeast  Level Estimated
11:52AM 42.0249 -70.8362 60° Northeast  Level Estimated
11:53AM 41.9464 -70.9426 60° Northeast  Level Estimated
11:54AM 41.8679 -71.0489 60° Northeast  Level Estimated
11:55AM 41.7893 -71.1549 60° Northeast  Level Estimated